Map

Track Data

SID SEASON NUMBER BASIN SUBBASIN NAME ISO_TIME NATURE LAT LON WMO_WIND WMO_PRES WMO_AGENCY TRACK_TYPE DIST2LAND LANDFALL IFLAG USA_AGENCY USA_ATCF_ID USA_LAT USA_LON USA_RECORD USA_STATUS USA_WIND USA_PRES USA_SSHS USA_R34_NE USA_R34_SE USA_R34_SW USA_R34_NW USA_R50_NE USA_R50_SE USA_R50_SW USA_R50_NW USA_R64_NE USA_R64_SE USA_R64_SW USA_R64_NW USA_POCI USA_ROCI USA_RMW USA_EYE TOKYO_LAT TOKYO_LON TOKYO_GRADE TOKYO_WIND TOKYO_PRES TOKYO_R50_DIR TOKYO_R50_LONG TOKYO_R50_SHORT TOKYO_R30_DIR TOKYO_R30_LONG TOKYO_R30_SHORT TOKYO_LAND CMA_LAT CMA_LON CMA_CAT CMA_WIND CMA_PRES HKO_LAT HKO_LON HKO_CAT HKO_WIND HKO_PRES NEWDELHI_LAT NEWDELHI_LON NEWDELHI_GRADE NEWDELHI_WIND NEWDELHI_PRES NEWDELHI_CI NEWDELHI_DP NEWDELHI_POCI REUNION_LAT REUNION_LON REUNION_TYPE REUNION_WIND REUNION_PRES REUNION_TNUM REUNION_CI REUNION_RMW REUNION_R34_NE REUNION_R34_SE REUNION_R34_SW REUNION_R34_NW REUNION_R50_NE REUNION_R50_SE REUNION_R50_SW REUNION_R50_NW REUNION_R64_NE REUNION_R64_SE REUNION_R64_SW REUNION_R64_NW BOM_LAT BOM_LON BOM_TYPE BOM_WIND BOM_PRES BOM_TNUM BOM_CI BOM_RMW BOM_R34_NE BOM_R34_SE BOM_R34_SW BOM_R34_NW BOM_R50_NE BOM_R50_SE BOM_R50_SW BOM_R50_NW BOM_R64_NE BOM_R64_SE BOM_R64_SW BOM_R64_NW BOM_ROCI BOM_POCI BOM_EYE BOM_POS_METHOD BOM_PRES_METHOD NADI_LAT NADI_LON NADI_CAT NADI_WIND NADI_PRES WELLINGTON_LAT WELLINGTON_LON WELLINGTON_WIND WELLINGTON_PRES DS824_LAT DS824_LON DS824_STAGE DS824_WIND DS824_PRES TD9636_LAT TD9636_LON TD9636_STAGE TD9636_WIND TD9636_PRES TD9635_LAT TD9635_LON TD9635_WIND TD9635_PRES TD9635_ROCI NEUMANN_LAT NEUMANN_LON NEUMANN_CLASS NEUMANN_WIND NEUMANN_PRES MLC_LAT MLC_LON MLC_CLASS MLC_WIND MLC_PRES USA_GUST BOM_GUST BOM_GUST_PER REUNION_GUST REUNION_GUST_PER USA_SEAHGT USA_SEARAD_NE USA_SEARAD_SE USA_SEARAD_SW USA_SEARAD_NW STORM_SPEED STORM_DIR
1966253N22133 1966 73 WP MM NOT_NAMED 1966-09-10 00:00:00 TS 21.5000 133.000 main 1085 1085 __O___________ -1 21.5000 133.000 1 23 1006 7 126
1966253N22133 1966 73 WP MM NOT_NAMED 1966-09-10 03:00:00 TS 21.3052 133.290 main 1113 1113 __P___________ -1 21.3052 133.290 1 26 1004 7 137
1966253N22133 1966 73 WP MM NOT_NAMED 1966-09-10 06:00:00 TS 21.0000 133.500 main 1151 1151 __O___________ -1 21.0000 133.500 1 29 1003 8 162
1966253N22133 1966 73 WP MM NOT_NAMED 1966-09-10 09:00:00 TS 20.5472 133.555 main 1207 1181 __P___________ -1 20.5472 133.555 1 29 1003 8 187
1966253N22133 1966 73 WP MM NOT_NAMED 1966-09-10 12:00:00 TS 20.2000 133.400 main 1181 1140 __O___________ -1 20.2000 133.400 1 29 1003 6 237
1966253N22133 1966 73 WP MM NOT_NAMED 1966-09-10 15:00:00 TS 20.1954 132.980 main 1140 1092 __P___________ -1 20.1954 132.980 1 29 1002 9 283
1966253N22133 1966 73 WP MM NOT_NAMED 1966-09-10 18:00:00 TS 20.4000 132.500 main 1092 1066 __O___________ -1 20.4000 132.500 1 29 1002 8 302
1966253N22133 1966 73 WP MM NOT_NAMED 1966-09-10 21:00:00 TS 20.6473 132.220 main 1066 1053 __P___________ -1 20.6473 132.220 1 29 1002 8 322
1966253N22133 1966 73 WP MM NOT_NAMED 1966-09-11 00:00:00 TS 21.0000 132.000 main 1056 1044 __O___________ -1 21.0000 132.000 1 29 1002 9 331
1966253N22133 1966 73 WP MM NOT_NAMED 1966-09-11 03:00:00 TS 21.4500 131.750 main 1048 1019 __P___________ -1 21.4500 131.750 1 29 1002 10 333
1966253N22133 1966 73 WP MM NOT_NAMED 1966-09-11 06:00:00 TS 21.9000 131.500 main 1019 984 __O___________ -1 21.9000 131.500 1 29 1002 9 331
1966253N22133 1966 73 WP MM NOT_NAMED 1966-09-11 09:00:00 TS 22.2373 131.280 main 984 949 __P___________ -1 22.2373 131.280 1 29 1001 8 322
1966253N22133 1966 73 WP MM NOT_NAMED 1966-09-11 12:00:00 TS 22.5000 131.000 main 949 908 __O___________ -1 22.5000 131.000 1 29 1000 8 308
1966253N22133 1966 73 WP MM NOT_NAMED 1966-09-11 15:00:00 TS 22.7374 130.595 main 908 853 __P___________ -1 22.7374 130.595 1 29 1000 9 296
1966253N22133 1966 73 WP MM NOT_NAMED 1966-09-11 18:00:00 TS 22.9000 130.100 main 853 800 __O___________ -1 22.9000 130.100 1 29 1000 10 287
1966253N22133 1966 73 WP MM NOT_NAMED 1966-09-11 21:00:00 TS 23.0403 129.520 main 790 741 __P___________ -1 23.0403 129.520 1 29 1000 10 276
1966253N22133 1966 73 WP MM NOT_NAMED 1966-09-12 00:00:00 TS 23.0000 129.000 main 741 727 __O___________ -1 23.0000 129.000 1 29 1000 8 238
1966253N22133 1966 73 WP MM NOT_NAMED 1966-09-12 03:00:00 TS 22.6216 128.780 main 734 720 __P___________ -1 22.6216 128.780 1 29 1000 9 210
1966253N22133 1966 73 WP MM NOT_NAMED 1966-09-12 06:00:00 TS 22.2000 128.500 main 720 673 __O___________ -1 22.2000 128.500 1 29 1000 11 234
1966253N22133 1966 73 WP MM NOT_NAMED 1966-09-12 09:00:00 TS 22.0024 127.862 main 673 597 __P___________ -1 22.0024 127.862 1 29 1000 14 262
1966253N22133 1966 73 WP MM NOT_NAMED 1966-09-12 12:00:00 TS 22.0000 127.000 main 587 492 __O___________ -1 22.0000 127.000 1 29 1000 17 277
1966253N22133 1966 73 WP MM NOT_NAMED 1966-09-12 15:00:00 TS 22.2193 126.076 main 492 384 __P___________ -1 22.2193 126.076 1 26 1000 19 285
1966253N22133 1966 73 WP MM NOT_NAMED 1966-09-12 18:00:00 TS 22.5000 125.000 main 374 252 __O___________ -1 22.5000 125.000 1 23 1000 22 281
1966253N22133 1966 73 WP MM NOT_NAMED 1966-09-12 21:00:00 TS 22.6542 123.690 main 239 130 __P___________ -1 22.6542 123.690 1 1001 23 275
1966253N22133 1966 73 WP MM NOT_NAMED 1966-09-13 00:00:00 TS 22.7000 122.500 main 121 52 __O___________ -1 22.7000 122.500 0 1002 19 270
1966253N22133 1966 73 WP MM NOT_NAMED 1966-09-13 03:00:00 TS 22.6514 121.659 main 52 30 __P___________ -1 22.6514 121.659 0 1002 11 260
1966253N22133 1966 73 WP MM NOT_NAMED 1966-09-13 06:00:00 TS 22.5000 121.300 main 32 32 __O___________ -1 22.5000 121.300 0 1002 4 202
1966253N22133 1966 73 WP MM NOT_NAMED 1966-09-13 09:00:00 TS 22.2573 121.486 main 61 61 __P___________ -1 22.2573 121.486 0 1002 8 128
1966253N22133 1966 73 WP MM NOT_NAMED 1966-09-13 12:00:00 TS 22.0000 122.000 main 113 113 __O___________ -1 22.0000 122.000 0 1002 10 115
1966253N22133 1966 73 WP MM NOT_NAMED 1966-09-13 15:00:00 TS 21.8201 122.485 main 165 165 __P___________ -1 21.8201 122.485 0 1002 10 108
1966253N22133 1966 73 WP MM NOT_NAMED 1966-09-13 18:00:00 TS 21.7000 123.000 main 217 217 __O___________ -1 21.7000 123.000 0 1002 9 102
1966253N22133 1966 73 WP MM NOT_NAMED 1966-09-13 21:00:00 TS 21.6347 123.442 main 260 260 __P___________ -1 21.6347 123.442 0 1003 8 97
1966253N22133 1966 73 WP MM NOT_NAMED 1966-09-14 00:00:00 TS 21.6000 123.900 main 306 306 __O___________ -1 21.6000 123.900 0 1004 9 95
1966253N22133 1966 73 WP MM NOT_NAMED 1966-09-14 03:00:00 TS 21.5555 124.428 main 351 351 __P___________ -1 21.5555 124.428 0 1005 10 96
1966253N22133 1966 73 WP MM NOT_NAMED 1966-09-14 06:00:00 TS 21.5000 125.000 main 411 __O___________ -1 21.5000 125.000 0 1006 11 96

Digital Typhoon Data and Search

About IBTrACS Database

This database is a web-friendly format of International Best Track Archive for Climate Stewardship (IBTrACS), a global best track data archive curated by NOAA dating back to 1842.

Updated: 2021-11-26